Time;durP1;ratioP1;P1;durP2;ratioP2;P2;SDS_P1;SDS_P2;PMS_P1;PMS_P2;Temp;Humidity;BMP_temperature;BMP_pressure;BME280_temperature;BME280_humidity;BME280_pressure;Samples;Min_cycle;Max_cycle;Signal;HPM_P1;HPM_P2
2022/12/29 00:02:14;;;;;;;39.88;25.02;;;;;;;-0.78;100.00;101681.94;5055067;28;20544;-81
2022/12/29 00:04:40;;;;;;;39.30;23.48;;;;;;;-0.02;100.00;101829.59;5055726;28;20052;-79
2022/12/29 00:07:06;;;;;;;34.60;22.48;;;;;;;-0.49;100.00;101794.72;5056695;28;20037;-80
2022/12/29 00:09:33;;;;;;;37.72;23.40;;;;;;;-0.18;100.00;101840.59;5055544;28;20115;-77
2022/12/29 00:11:59;;;;;;;43.65;21.65;;;;;;;-0.05;100.00;101817.41;5036959;28;20036;-80
2022/12/29 00:17:09;;;;;;;45.70;24.58;;;;;;;-0.04;100.00;101836.34;5058881;28;20574;-82
2022/12/29 00:36:16;;;;;;;39.00;23.67;;;;;;;-0.03;100.00;101843.28;5039637;28;20110;-82
2022/12/29 00:44:17;;;;;;;48.58;22.17;;;;;;;-1.47;100.00;101582.06;5033627;28;20087;-79
2022/12/29 00:46:43;;;;;;;40.75;21.73;;;;;;;-0.40;100.00;101762.59;5053340;28;20408;-80
2022/12/29 00:51:57;;;;;;;35.33;21.55;;;;;;;-0.67;100.00;101687.81;5058624;28;20077;-82
2022/12/29 00:54:22;;;;;;;32.38;20.88;;;;;;;0.09;100.00;101812.22;5059098;28;20123;-80
2022/12/29 00:56:49;;;;;;;38.30;23.08;;;;;;;-0.01;100.00;101828.78;5056037;28;20050;-81
2022/12/29 00:59:15;;;;;;;39.53;20.13;;;;;;;-0.29;100.00;101790.88;5060115;28;20048;-80
2022/12/29 01:01:41;;;;;;;41.60;22.65;;;;;;;-0.99;100.00;101702.00;5057490;28;20158;-79
2022/12/29 01:04:08;;;;;;;42.60;22.45;;;;;;;-0.58;100.00;101749.38;5064392;28;20040;-81
2022/12/29 01:06:34;;;;;;;36.53;23.95;;;;;;;-0.07;100.00;101841.28;5059991;28;20066;-78
2022/12/29 01:11:44;;;;;;;37.83;20.10;;;;;;;-0.55;100.00;101731.53;5057823;28;20056;-80
2022/12/29 01:14:10;;;;;;;37.00;22.17;;;;;;;-0.06;100.00;101817.28;5043430;28;20053;-81
2022/12/29 01:16:36;;;;;;;38.00;22.00;;;;;;;-0.38;100.00;101769.63;5048126;28;20056;-80
2022/12/29 01:19:02;;;;;;;41.58;20.95;;;;;;;-0.91;100.00;101666.47;5063699;28;20162;-80
2022/12/29 01:21:28;;;;;;;33.83;20.60;;;;;;;-0.75;100.00;101691.53;5057428;28;20050;-78
2022/12/29 01:23:53;;;;;;;44.63;20.50;;;;;;;-0.16;100.00;101827.81;5060028;28;20043;-78
2022/12/29 01:26:19;;;;;;;28.17;18.88;;;;;;;0.18;100.00;101803.38;5055537;28;20049;-81
2022/12/29 01:28:46;;;;;;;40.50;25.08;;;;;;;0.19;100.00;101804.31;5053195;28;20045;-84
2022/12/29 01:31:13;;;;;;;36.72;20.55;;;;;;;-0.72;100.00;101671.16;5054923;28;20590;-84
2022/12/29 01:33:39;;;;;;;39.75;21.38;;;;;;;-0.14;100.00;101751.38;5055739;28;20040;-84
2022/12/29 01:36:07;;;;;;;33.25;20.63;;;;;;;0.05;100.00;101789.59;5038331;28;20244;-83
2022/12/29 01:38:34;;;;;;;30.42;22.45;;;;;;;-0.61;100.00;101687.31;5055157;28;20044;-82
2022/12/29 01:41:01;;;;;;;41.83;23.45;;;;;;;-1.66;100.00;101585.06;5057371;28;20080;-81
2022/12/29 01:43:50;;;;;;;42.13;23.50;;;;;;;-0.36;100.00;101799.00;5057010;28;20076;-81
2022/12/29 01:46:19;;;;;;;42.40;20.45;;;;;;;-0.09;100.00;101801.63;5049551;28;20049;-82
2022/12/29 01:48:46;;;;;;;42.25;26.08;;;;;;;-0.33;100.00;101787.97;5036764;28;20471;-81
2022/12/29 01:51:12;;;;;;;45.15;20.95;;;;;;;-0.38;100.00;101782.53;5056728;28;20097;-82
2022/12/29 01:53:37;;;;;;;44.65;23.90;;;;;;;-0.64;100.00;101747.28;5039501;28;20576;-82
2022/12/29 01:56:09;;;;;;;36.20;21.23;;;;;;;-1.15;100.00;101642.53;5041696;28;21013;-85
2022/12/29 01:58:39;;;;;;;47.47;21.27;;;;;;;-0.77;100.00;101749.81;5046278;28;20045;-85
2022/12/29 02:01:05;;;;;;;46.58;23.08;;;;;;;-0.78;100.00;101702.53;5035264;28;20053;-84
2022/12/29 02:03:32;;;;;;;40.75;24.88;;;;;;;-1.28;100.00;101594.47;5037723;28;20041;-85
2022/12/29 02:06:26;;;;;;;37.67;22.27;;;;;;;-0.33;100.00;101776.00;5055949;28;20028;-84
2022/12/29 02:08:54;;;;;;;41.17;21.90;;;;;;;-0.69;100.00;101731.50;5052502;28;20508;-83
2022/12/29 02:11:23;;;;;;;40.35;26.15;;;;;;;-0.64;100.00;101770.47;5054679;28;20398;-83
2022/12/29 02:13:48;;;;;;;41.95;24.98;;;;;;;-0.81;100.00;101741.00;5039948;28;20041;-84
2022/12/29 02:16:44;;;;;;;36.35;22.80;;;;;;;-0.54;100.00;101779.72;5038135;28;20049;-84
2022/12/29 02:19:55;;;;;;;38.13;24.30;;;;;;;-0.27;100.00;101772.91;5040065;28;20067;-83
2022/12/29 02:22:32;;;;;;;37.22;22.48;;;;;;;-0.22;100.00;101762.09;5041441;28;20048;-83
2022/12/29 02:25:26;;;;;;;56.75;26.00;;;;;;;-0.11;100.00;101764.50;5054206;28;20051;-86
2022/12/29 02:28:15;;;;;;;43.20;24.97;;;;;;;-0.47;100.00;101764.78;5050535;28;20052;-87
2022/12/29 02:31:12;;;;;;;48.95;24.10;;;;;;;-0.49;100.00;101732.84;5038209;28;20494;-83
2022/12/29 02:34:07;;;;;;;38.78;26.42;;;;;;;-0.55;100.00;101704.06;5054025;28;20040;-81
2022/12/29 02:37:00;;;;;;;56.17;27.90;;;;;;;-0.60;100.00;101722.63;5039040;28;20112;-80
2022/12/29 02:39:44;;;;;;;50.40;26.00;;;;;;;-0.96;100.00;101652.38;5053119;28;20119;-79
2022/12/29 02:42:20;;;;;;;40.42;25.73;;;;;;;-1.08;100.00;101647.28;5038520;28;20033;-80
2022/12/29 02:45:02;;;;;;;47.10;27.63;;;;;;;-1.08;100.00;101619.88;5040031;28;20080;-79
2022/12/29 02:47:54;;;;;;;40.83;24.25;;;;;;;-0.41;100.00;101771.13;5040449;28;20064;-82
2022/12/29 02:50:40;;;;;;;35.38;24.60;;;;;;;-0.66;100.00;101772.06;5034853;28;20060;-81
2022/12/29 02:53:13;;;;;;;46.72;29.67;;;;;;;-1.15;100.00;101767.06;5051663;28;20473;-81
2022/12/29 02:55:41;;;;;;;48.92;28.98;;;;;;;-1.66;100.00;101646.84;5035235;28;20041;-79
2022/12/29 02:58:22;;;;;;;48.78;27.83;;;;;;;-0.89;100.00;101778.22;5039896;28;20041;-79
2022/12/29 03:01:03;;;;;;;57.28;27.80;;;;;;;-0.75;100.00;101780.09;5037822;28;20053;-81
2022/12/29 03:03:56;;;;;;;44.42;25.17;;;;;;;-0.95;100.00;101772.66;5036467;28;20040;-79
2022/12/29 03:06:22;;;;;;;46.95;26.67;;;;;;;-0.86;100.00;101729.50;5042758;28;20037;-80
2022/12/29 03:08:47;;;;;;;60.90;30.77;;;;;;;-0.40;100.00;101767.75;5064701;28;20143;-82
2022/12/29 03:17:04;;;;;;;53.40;27.25;;;;;;;-0.62;100.00;101765.44;5051680;28;20697;-83
2022/12/29 03:19:36;;;;;;;47.97;25.83;;;;;;;-1.07;100.00;101624.22;5055355;28;20041;-82
2022/12/29 03:24:56;;;;;;;43.30;26.10;;;;;;;-1.06;100.00;101620.84;5052416;28;20520;-82
2022/12/29 03:27:28;;;;;;;45.85;26.58;;;;;;;-0.23;100.00;101768.06;5040234;28;20033;-81
2022/12/29 03:30:00;;;;;;;49.70;27.23;;;;;;;-0.55;100.00;101688.59;5056751;28;20069;-81
2022/12/29 03:32:35;;;;;;;44.55;25.33;;;;;;;-0.62;100.00;101701.88;5044674;28;20492;-81
2022/12/29 03:35:02;;;;;;;54.30;27.55;;;;;;;-1.92;100.00;101517.31;5039299;28;20053;-80
2022/12/29 03:37:35;;;;;;;50.67;29.77;;;;;;;-1.63;100.00;101620.41;5038327;28;20159;-80
2022/12/29 03:40:02;;;;;;;49.80;27.80;;;;;;;-1.52;100.00;101686.38;5038455;28;20056;-81
2022/12/29 03:42:30;;;;;;;43.25;30.27;;;;;;;-1.20;100.00;101754.63;5043004;28;21003;-82
2022/12/29 03:44:56;;;;;;;41.08;25.25;;;;;;;-2.03;100.00;101613.41;5045117;28;20033;-83
2022/12/29 03:47:24;;;;;;;46.25;26.63;;;;;;;-0.69;100.00;101770.16;5057600;28;20118;-82
2022/12/29 03:49:50;;;;;;;43.85;28.77;;;;;;;-1.22;100.00;101645.47;5057609;28;20143;-81
2022/12/29 03:52:18;;;;;;;48.47;25.45;;;;;;;-1.59;100.00;101565.78;5059308;28;20055;-81
2022/12/29 03:54:44;;;;;;;48.13;28.80;;;;;;;-0.72;100.00;101714.97;5062063;28;20041;-83
2022/12/29 03:57:11;;;;;;;47.30;27.17;;;;;;;-0.68;100.00;101742.69;5058547;28;20056;-82
2022/12/29 03:59:37;;;;;;;46.28;26.00;;;;;;;-0.45;100.00;101778.63;5054596;28;20127;-83
2022/12/29 04:02:02;;;;;;;46.35;27.88;;;;;;;-0.77;100.00;101731.78;5042149;28;20096;-83
2022/12/29 04:04:28;;;;;;;50.40;30.25;;;;;;;-1.36;100.00;101590.50;5047908;28;20052;-80
2022/12/29 04:06:53;;;;;;;47.05;26.02;;;;;;;-0.31;100.00;101769.22;5060261;28;20750;-80
2022/12/29 04:09:19;;;;;;;49.13;27.27;;;;;;;-0.68;100.00;101725.59;5060975;28;20064;-81
2022/12/29 04:11:44;;;;;;;56.30;27.88;;;;;;;-0.62;100.00;101750.84;5057488;28;20055;-81
2022/12/29 04:14:10;;;;;;;42.17;26.17;;;;;;;-0.76;100.00;101677.78;5057404;28;20045;-83
2022/12/29 04:16:38;;;;;;;46.38;27.77;;;;;;;-1.72;100.00;101625.81;5046101;28;20048;-82
2022/12/29 04:19:07;;;;;;;50.28;27.92;;;;;;;-1.13;100.00;101765.44;5037450;28;20049;-81
2022/12/29 04:21:34;;;;;;;76.82;31.90;;;;;;;-1.01;100.00;101774.81;5040692;28;20037;-81
2022/12/29 04:23:59;;;;;;;51.15;27.67;;;;;;;-1.57;100.00;101593.44;5058773;28;20029;-80
2022/12/29 04:26:25;;;;;;;50.95;27.70;;;;;;;-0.58;100.00;101739.97;5060874;28;20041;-81
2022/12/29 04:28:51;;;;;;;44.85;28.67;;;;;;;-1.51;100.00;101595.50;5042887;28;20132;-79
2022/12/29 04:31:17;;;;;;;60.20;27.83;;;;;;;-0.77;100.00;101735.28;5038696;28;20142;-80
2022/12/29 04:33:43;;;;;;;43.30;28.00;;;;;;;-1.68;100.00;101584.06;5037222;28;20036;-81
2022/12/29 04:36:08;;;;;;;43.22;25.63;;;;;;;-1.34;100.00;101622.38;5038482;28;20037;-81
2022/12/29 04:38:34;;;;;;;42.30;26.00;;;;;;;-1.57;100.00;101570.25;5036170;28;20080;-80
2022/12/29 04:41:00;;;;;;;45.65;24.98;;;;;;;-0.65;100.00;101737.78;5051677;28;20424;-79
2022/12/29 04:43:26;;;;;;;42.83;27.45;;;;;;;-0.69;100.00;101726.34;5050382;28;20493;-79
2022/12/29 04:45:52;;;;;;;43.40;27.83;;;;;;;-1.43;100.00;101608.88;5036855;28;20056;-81
2022/12/29 04:48:17;;;;;;;42.03;23.25;;;;;;;-1.14;100.00;101632.34;5040283;28;20036;-79
2022/12/29 04:50:44;;;;;;;52.70;29.88;;;;;;;-0.64;100.00;101729.25;5038932;28;20049;-79
2022/12/29 04:53:09;;;;;;;58.60;28.83;;;;;;;-0.83;100.00;101700.47;5035291;28;20064;-82
2022/12/29 04:55:35;;;;;;;35.83;22.48;;;;;;;-1.13;100.00;101675.31;5045944;28;20032;-82
2022/12/29 04:58:00;;;;;;;47.13;28.65;;;;;;;-1.20;100.00;101631.91;5057756;28;20075;-83
2022/12/29 05:00:26;;;;;;;45.28;26.75;;;;;;;-1.65;100.00;101539.66;5053124;28;20036;-80
2022/12/29 05:02:51;;;;;;;51.35;29.85;;;;;;;-1.56;100.00;101561.75;5040545;28;20032;-81
2022/12/29 05:05:17;;;;;;;47.85;28.40;;;;;;;-0.53;100.00;101730.84;5053644;28;20470;-82
2022/12/29 05:07:43;;;;;;;47.63;25.88;;;;;;;-0.97;100.00;101653.19;5056150;28;20377;-82
2022/12/29 05:10:09;;;;;;;49.15;25.90;;;;;;;-0.55;100.00;101749.59;5053237;28;20098;-80
2022/12/29 05:12:36;;;;;;;48.72;26.52;;;;;;;-1.50;100.00;101629.09;5035158;28;20405;-80
2022/12/29 05:15:05;;;;;;;41.55;24.65;;;;;;;-0.75;100.00;101718.22;5058512;28;20573;-79
2022/12/29 05:17:30;;;;;;;45.20;26.80;;;;;;;-0.64;100.00;101682.84;5057376;28;20048;-82
2022/12/29 05:19:56;;;;;;;62.08;28.40;;;;;;;-0.27;100.00;101739.41;5054543;28;20574;-81
2022/12/29 05:22:22;;;;;;;33.03;21.38;;;;;;;-0.44;100.00;101731.44;5050359;28;20080;-81
2022/12/29 05:24:47;;;;;;;53.58;25.05;;;;;;;-1.48;100.00;101575.13;5021934;28;20045;-80
2022/12/29 05:27:13;;;;;;;44.28;27.40;;;;;;;-0.65;100.00;101740.34;5036767;28;20087;-80
2022/12/29 05:29:38;;;;;;;47.97;23.85;;;;;;;-0.21;100.00;101744.97;5054779;28;20564;-83
2022/12/29 05:32:04;;;;;;;42.67;23.13;;;;;;;-0.66;100.00;101650.91;5057387;28;20511;-83
2022/12/29 05:34:30;;;;;;;41.22;24.95;;;;;;;-0.95;100.00;101618.09;5045074;28;20085;-79
2022/12/29 05:36:57;;;;;;;49.72;23.30;;;;;;;-0.43;100.00;101712.59;5046484;28;20144;-83
2022/12/29 05:39:23;;;;;;;44.85;24.50;;;;;;;-0.61;100.00;101690.75;5057255;28;20033;-79
2022/12/29 05:41:48;;;;;;;46.92;26.60;;;;;;;-1.09;100.00;101597.47;5038531;28;20151;-78
2022/12/29 05:44:17;;;;;;;56.40;28.15;;;;;;;-0.77;100.00;101621.91;5050725;28;20044;-79
2022/12/29 05:46:42;;;;;;;42.33;24.50;;;;;;;-0.75;100.00;101622.88;5058090;28;20044;-78
2022/12/29 05:49:08;;;;;;;47.67;27.58;;;;;;;-1.23;100.00;101548.44;5048958;28;20059;-79
2022/12/29 05:51:33;;;;;;;45.03;25.73;;;;;;;-1.04;100.00;101590.06;5037854;28;20127;-77
2022/12/29 05:53:59;;;;;;;43.38;24.38;;;;;;;-0.76;100.00;101643.38;5040508;28;20033;-77
2022/12/29 05:56:25;;;;;;;35.58;22.42;;;;;;;-0.75;100.00;101713.09;5038317;28;20052;-78
2022/12/29 05:58:50;;;;;;;53.42;27.35;;;;;;;-1.23;100.00;101577.66;5041730;28;20045;-77
2022/12/29 06:01:16;;;;;;;44.40;24.58;;;;;;;-0.45;100.00;101700.41;5039567;28;20056;-76
2022/12/29 06:03:41;;;;;;;42.30;25.23;;;;;;;-0.23;100.00;101744.84;5037394;28;20029;-77
2022/12/29 06:06:07;;;;;;;43.15;24.58;;;;;;;-0.21;100.00;101721.75;5042343;28;20742;-77
2022/12/29 06:08:32;;;;;;;40.40;23.67;;;;;;;-1.00;100.00;101588.59;5057346;28;20052;-76
2022/12/29 06:10:58;;;;;;;48.67;24.58;;;;;;;-0.64;100.00;101654.50;5055679;28;20499;-78
2022/12/29 06:13:23;;;;;;;52.90;24.80;;;;;;;-0.46;100.00;101716.69;5055715;28;20056;-77
2022/12/29 06:15:49;;;;;;;38.08;25.92;;;;;;;-0.20;100.00;101766.47;5057372;28;20097;-77
2022/12/29 06:18:15;;;;;;;41.75;25.95;;;;;;;-0.32;100.00;101726.19;5057225;28;20038;-76
2022/12/29 06:20:40;;;;;;;41.80;25.17;;;;;;;-0.98;100.00;101595.63;5055768;28;20040;-78
2022/12/29 06:23:06;;;;;;;36.67;26.38;;;;;;;-0.55;100.00;101691.19;5056590;28;20052;-78
2022/12/29 06:25:33;;;;;;;57.00;28.70;;;;;;;-0.39;100.00;101718.88;5056440;28;20101;-78
2022/12/29 06:27:59;;;;;;;42.75;24.83;;;;;;;-0.12;100.00;101744.66;5060258;28;20052;-77
2022/12/29 06:30:24;;;;;;;43.33;25.48;;;;;;;0.06;100.00;101776.78;5061876;28;20040;-79
2022/12/29 06:32:51;;;;;;;44.22;22.92;;;;;;;-0.58;100.00;101638.56;5045094;28;20407;-77
2022/12/29 06:35:16;;;;;;;44.38;27.48;;;;;;;-1.71;100.00;101496.38;5053469;28;20041;-77
2022/12/29 06:37:43;;;;;;;40.30;25.02;;;;;;;-0.10;100.00;101741.38;5047294;28;20463;-77
2022/12/29 06:40:09;;;;;;;42.70;26.63;;;;;;;0.25;100.00;101755.63;5044585;28;20049;-78
2022/12/29 06:42:34;;;;;;;52.25;31.08;;;;;;;-0.07;100.00;101673.59;5055044;28;20037;-77
2022/12/29 06:45:00;;;;;;;44.10;29.15;;;;;;;-0.66;100.00;101578.75;5054701;28;20036;-78
2022/12/29 06:47:26;;;;;;;41.35;24.50;;;;;;;0.23;100.00;101797.63;5056962;28;20504;-78
2022/12/29 06:49:52;;;;;;;56.50;25.65;;;;;;;0.45;100.00;101776.66;5054442;28;20501;-77
2022/12/29 06:52:18;;;;;;;47.22;27.10;;;;;;;0.01;100.00;101674.97;5053263;28;20060;-78
2022/12/29 06:54:44;;;;;;;37.72;24.15;;;;;;;0.28;100.00;101724.88;5056460;28;20036;-79
2022/12/29 06:57:11;;;;;;;33.55;22.52;;;;;;;0.71;100.00;101758.50;5059393;28;20056;-79
2022/12/29 06:59:36;;;;;;;38.20;25.42;;;;;;;0.02;100.00;101621.69;5040604;28;20136;-79
2022/12/29 07:02:02;;;;;;;42.97;23.48;;;;;;;0.96;100.00;101765.16;5057498;28;20048;-79
2022/12/29 07:04:28;;;;;;;41.88;23.38;;;;;;;0.92;100.00;101745.13;5055490;28;20045;-79
2022/12/29 07:06:53;;;;;;;44.22;22.02;;;;;;;0.05;100.00;101625.38;5038439;28;20108;-78
2022/12/29 07:09:19;;;;;;;34.67;22.23;;;;;;;0.87;100.00;101738.75;5039500;28;20635;-77
2022/12/29 07:11:44;;;;;;;39.53;23.20;;;;;;;1.16;100.00;101766.38;5039299;28;20781;-77
2022/12/29 07:14:11;;;;;;;43.80;23.88;;;;;;;0.46;100.00;101650.22;5053571;28;20045;-77
2022/12/29 07:16:36;;;;;;;35.17;21.30;;;;;;;0.37;100.00;101610.94;5058825;28;20045;-76
2022/12/29 07:19:02;;;;;;;37.08;21.17;;;;;;;0.45;100.00;101614.88;5060229;28;20056;-77
2022/12/29 07:21:28;;;;;;;51.90;21.23;;;;;;;0.65;100.00;101641.00;5058991;28;20129;-80
2022/12/29 07:23:54;;;;;;;35.20;20.58;;;;;;;0.80;100.00;101684.16;5063354;28;20101;-77
2022/12/29 07:26:19;;;;;;;39.88;21.58;;;;;;;0.76;100.00;101678.72;5059697;28;20040;-76
2022/12/29 07:28:45;;;;;;;27.38;17.52;;;;;;;1.38;100.00;101753.94;5063707;28;20099;-78
2022/12/29 07:31:19;;;;;;;32.22;19.50;;;;;;;1.39;100.00;101776.38;5060350;28;20048;-78
2022/12/29 07:33:45;;;;;;;35.67;19.85;;;;;;;0.41;100.00;101633.56;5058122;28;20564;-77
2022/12/29 07:36:12;;;;;;;33.50;20.27;;;;;;;1.11;100.00;101693.72;5060809;28;20047;-77
2022/12/29 07:38:38;;;;;;;31.83;19.90;;;;;;;1.55;100.00;101730.75;5042481;28;20041;-77
2022/12/29 07:41:03;;;;;;;39.75;19.90;;;;;;;0.81;100.00;101587.75;5055407;28;20045;-78
2022/12/29 07:43:29;;;;;;;46.88;20.85;;;;;;;0.63;100.00;101589.25;5059647;28;20044;-78
2022/12/29 07:45:54;;;;;;;40.97;22.13;;;;;;;0.89;100.00;101611.47;5056553;28;20556;-78
2022/12/29 07:48:21;;;;;;;38.92;21.15;;;;;;;1.33;100.00;101659.66;5041681;28;20037;-78
2022/12/29 07:50:47;;;;;;;32.40;21.10;;;;;;;1.40;100.00;101629.88;5038482;28;20120;-78
2022/12/29 07:53:13;;;;;;;40.20;21.63;;;;;;;1.92;100.00;101749.25;5056134;28;20123;-77
2022/12/29 07:55:38;;;;;;;35.30;20.80;;;;;;;1.44;100.00;101621.50;5056769;28;20392;-77
2022/12/29 07:58:04;;;;;;;37.90;20.85;;;;;;;2.56;100.00;101771.75;5063069;28;20110;-78
2022/12/29 08:00:29;;;;;;;31.27;20.33;;;;;;;2.21;100.00;101693.91;5058367;28;20424;-80
2022/12/29 08:02:55;;;;;;;26.35;17.08;;;;;;;2.02;100.00;101647.13;5058808;28;20029;-79
2022/12/29 08:05:20;;;;;;;31.88;17.75;;;;;;;1.94;100.00;101596.63;5043581;28;20041;-78
2022/12/29 08:07:46;;;;;;;34.90;16.92;;;;;;;2.20;100.00;101650.72;5051046;28;20059;-78
2022/12/29 08:10:13;;;;;;;28.38;18.77;;;;;;;3.10;100.00;101759.94;5061896;28;20484;-76
2022/12/29 08:12:39;;;;;;;29.17;14.07;;;;;;;3.23;100.00;101764.03;5052346;28;20040;-77
2022/12/29 08:15:06;;;;;;;32.50;15.32;;;;;;;3.20;100.00;101719.81;5062018;28;20143;-78
2022/12/29 08:17:32;;;;;;;33.42;14.23;;;;;;;3.50;100.00;101747.28;5063310;28;20037;-78
2022/12/29 08:19:58;;;;;;;28.50;15.13;;;;;;;2.71;100.00;101602.41;5044654;28;20092;-78
2022/12/29 08:22:23;;;;;;;18.80;12.65;;;;;;;3.19;100.00;101682.59;5042868;28;20095;-77
2022/12/29 08:24:49;;;;;;;24.23;13.60;;;;;;;3.59;100.00;101739.09;5038523;28;21007;-77
2022/12/29 08:27:14;;;;;;;20.73;12.50;;;;;;;3.77;100.00;101754.69;5038420;28;20571;-79
2022/12/29 08:29:40;;;;;;;33.83;12.45;;;;;;;3.09;100.00;101599.97;5052358;28;20049;-77
2022/12/29 08:32:06;;;;;;;17.42;12.68;;;;;;;3.81;100.00;101761.78;5041705;28;20041;-78
2022/12/29 08:34:32;;;;;;;21.80;13.52;;;;;;;3.78;100.00;101721.00;5046334;28;20178;-78
2022/12/29 08:36:58;;;;;;;21.08;11.00;;;;;;;4.10;100.00;101744.16;5060933;28;20116;-79
2022/12/29 08:39:25;;;;;;;19.55;10.68;;;;;;;3.52;100.00;101634.09;5059855;28;20090;-77
2022/12/29 08:41:50;;;;;;;19.30;11.70;;;;;;;4.12;100.00;101727.81;5054916;28;20052;-78
2022/12/29 08:44:16;;;;;;;22.95;13.32;;;;;;;4.40;100.00;101737.78;5058900;28;20385;-75
2022/12/29 08:46:41;;;;;;;27.55;13.20;;;;;;;4.40;100.00;101716.09;5060247;28;20488;-76
2022/12/29 08:49:07;;;;;;;20.80;11.38;;;;;;;4.48;100.00;101737.25;5057737;28;20113;-73
2022/12/29 08:51:32;;;;;;;18.30;12.30;;;;;;;4.37;100.00;101716.84;5054981;28;20032;-73
2022/12/29 08:53:58;;;;;;;18.23;10.35;;;;;;;4.35;100.00;101735.78;5061417;28;20484;-75
2022/12/29 08:56:24;;;;;;;23.27;10.75;;;;;;;4.47;100.00;101717.28;5055176;28;20057;-74
2022/12/29 08:58:51;;;;;;;27.88;11.32;;;;;;;4.65;100.00;101705.09;5054617;28;20063;-76
2022/12/29 09:01:16;;;;;;;18.73;9.73;;;;;;;4.84;100.00;101728.50;5056064;28;20058;-77
2022/12/29 09:03:42;;;;;;;23.27;11.32;;;;;;;4.81;100.00;101712.78;5055438;28;20821;-77
2022/12/29 09:06:07;;;;;;;27.30;10.73;;;;;;;4.06;100.00;101555.22;5039392;28;20037;-77
2022/12/29 09:08:33;;;;;;;16.25;11.13;;;;;;;5.09;100.00;101711.38;5054645;28;20044;-76
2022/12/29 09:11:08;;;;;;;18.17;11.25;;;;;;;4.21;100.00;101567.19;5056043;28;20572;-75
2022/12/29 09:13:33;;;;;;;17.92;9.05;;;;;;;4.90;100.00;101675.00;5050766;28;20095;-81
2022/12/29 09:15:59;;;;;;;19.67;10.23;;;;;;;4.35;100.00;101559.09;5047929;28;20046;-77
2022/12/29 09:18:24;;;;;;;16.40;9.43;;;;;;;5.02;100.00;101671.22;5040809;28;20518;-78
2022/12/29 09:20:56;;;;;;;14.93;9.73;;;;;;;5.15;100.00;101674.31;5032552;28;20044;-77
2022/12/29 09:23:22;;;;;;;16.33;9.13;;;;;;;5.30;100.00;101690.59;5037498;28;20087;-78
2022/12/29 09:25:47;;;;;;;15.88;8.35;;;;;;;5.23;100.00;101663.41;5035620;28;20818;-82
2022/12/29 09:28:13;;;;;;;15.00;8.02;;;;;;;5.40;100.00;101679.72;5034442;28;20748;-76
2022/12/29 09:30:39;;;;;;;19.05;9.75;;;;;;;5.31;100.00;101632.50;5035548;28;20063;-79
2022/12/29 09:33:04;;;;;;;15.13;8.05;;;;;;;5.58;100.00;101692.63;5037091;28;20035;-76
2022/12/29 09:35:30;;;;;;;26.00;10.32;;;;;;;5.68;100.00;101692.16;5035049;28;20041;-77
2022/12/29 09:37:55;;;;;;;16.73;8.93;;;;;;;5.80;100.00;101683.06;5043933;28;20056;-77
2022/12/29 09:40:29;;;;;;;18.05;7.35;;;;;;;5.69;100.00;101674.84;5040363;28;20051;-78
2022/12/29 09:43:23;;;;;;;20.70;8.25;;;;;;;6.04;100.00;101684.09;5036899;28;20049;-75
2022/12/29 09:46:13;;;;;;;17.42;7.82;;;;;;;6.11;100.00;101683.50;5035946;28;20501;-79
2022/12/29 09:48:47;;;;;;;11.70;7.32;;;;;;;6.24;100.00;101661.38;5039652;28;20336;-77
2022/12/29 09:51:16;;;;;;;14.07;9.40;;;;;;;6.01;100.00;101634.44;5041794;28;20187;-78
2022/12/29 09:53:58;;;;;;;16.00;8.75;;;;;;;5.48;100.00;101521.28;5043927;28;20045;-78
2022/12/29 09:56:26;;;;;;;15.65;8.38;;;;;;;5.52;100.00;101537.91;5052184;28;20032;-77
2022/12/29 09:58:51;;;;;;;21.13;9.48;;;;;;;6.31;100.00;101660.78;5053708;28;20098;-78
2022/12/29 10:01:26;;;;;;;14.65;9.23;;;;;;;5.45;100.00;101502.94;5053306;28;20052;-79
2022/12/29 10:03:56;;;;;;;13.25;7.90;;;;;;;6.29;100.00;101661.56;5037757;28;20517;-75
2022/12/29 10:06:25;;;;;;;16.05;9.50;;;;;;;6.53;100.00;101662.47;5040262;28;20057;-76
2022/12/29 10:08:50;;;;;;;18.33;8.13;;;;;;;6.70;100.00;101659.59;5045584;28;20136;-76
2022/12/29 10:11:40;;;;;;;21.20;10.07;;;;;;;6.70;100.00;101649.16;5062909;28;20106;-74
2022/12/29 10:14:36;;;;;;;17.17;8.88;;;;;;;6.92;100.00;101645.56;5054815;28;20118;-76
2022/12/29 10:17:08;;;;;;;17.27;7.90;;;;;;;6.88;100.00;101644.59;5050918;28;20487;-74
2022/12/29 10:19:42;;;;;;;19.23;9.88;;;;;;;6.70;100.00;101636.13;5041697;28;20131;-76
2022/12/29 10:22:35;;;;;;;19.52;7.53;;;;;;;5.99;100.00;101505.84;5059119;28;20040;-79
2022/12/29 10:25:08;;;;;;;14.23;8.32;;;;;;;6.67;100.00;101629.06;5036345;28;20067;-79
2022/12/29 10:27:35;;;;;;;14.57;7.53;;;;;;;6.27;100.00;101528.56;5038338;28;20052;-76
2022/12/29 10:30:02;;;;;;;17.75;9.90;;;;;;;6.35;100.00;101518.44;5038839;28;20056;-76
2022/12/29 10:33:09;;;;;;;14.25;8.32;;;;;;;7.07;100.00;101626.94;5033863;28;20049;-83
2022/12/29 10:35:38;;;;;;;19.00;8.40;;;;;;;7.24;100.00;101640.59;5032370;28;20079;-84
2022/12/29 10:38:16;;;;;;;13.82;8.18;;;;;;;7.19;100.00;101575.16;5060624;28;20152;-83
2022/12/29 10:41:00;;;;;;;25.92;9.27;;;;;;;7.88;100.00;101624.34;5057917;28;20044;-86
2022/12/29 10:43:40;;;;;;;22.08;9.25;;;;;;;7.16;100.00;101512.41;5057451;28;20504;-88
2022/12/29 10:46:15;;;;;;;11.90;8.88;;;;;;;7.70;100.00;101524.50;5051930;28;20241;-82
2022/12/29 10:48:45;;;;;;;16.88;9.60;;;;;;;8.50;100.00;101610.47;5056946;28;20504;-82
2022/12/29 10:51:22;;;;;;;16.88;9.50;;;;;;;7.70;100.00;101512.34;5059729;28;20087;-80
2022/12/29 10:53:54;;;;;;;17.35;9.20;;;;;;;7.91;100.00;101524.22;5060012;28;20105;-81
2022/12/29 10:56:38;;;;;;;21.77;10.40;;;;;;;8.19;100.00;101499.75;5049459;28;20040;-79
2022/12/29 10:59:22;;;;;;;14.15;10.88;;;;;;;8.25;100.00;101463.31;5035713;28;20132;-82
2022/12/29 11:02:11;;;;;;;18.45;11.20;;;;;;;9.27;100.00;101592.41;5027148;28;20051;-83
2022/12/29 11:04:58;;;;;;;15.30;9.88;;;;;;;9.33;100.00;101613.50;5022350;28;20048;-81
2022/12/29 11:07:25;;;;;;;16.63;11.18;;;;;;;8.82;100.00;101477.88;5054708;28;20076;-83
2022/12/29 11:09:51;;;;;;;25.48;11.77;;;;;;;9.69;100.00;101596.88;5058271;28;20058;-82
2022/12/29 11:12:30;;;;;;;16.25;10.25;;;;;;;9.33;100.00;101600.41;5045639;28;20052;-83
2022/12/29 11:15:08;;;;;;;16.58;10.10;;;;;;;9.51;100.00;101606.09;5039090;28;20053;-83
2022/12/29 11:18:03;;;;;;;11.50;9.38;;;;;;;9.34;100.00;101598.69;5055919;28;20051;-77
2022/12/29 11:20:38;;;;;;;20.95;9.07;;;;;;;9.60;100.00;101607.16;5053164;28;20122;-75
2022/12/29 11:23:25;;;;;;;10.73;8.23;;;;;;;9.53;100.00;101598.28;5053766;28;20059;-75
2022/12/29 11:26:25;;;;;;;10.68;7.32;;;;;;;9.07;100.00;101592.81;5031686;28;20109;-76
2022/12/29 11:29:16;;;;;;;14.30;8.73;;;;;;;8.97;100.00;101593.44;5053509;28;20177;-78
2022/12/29 11:31:41;;;;;;;13.80;8.60;;;;;;;9.10;100.00;101597.22;5054078;28;20056;-77
2022/12/29 11:34:07;;;;;;;15.02;8.15;;;;;;;9.00;100.00;101574.28;5034885;28;20025;-78
2022/12/29 11:36:35;;;;;;;22.13;9.57;;;;;;;8.65;100.00;101506.25;5049978;28;20067;-78
2022/12/29 11:39:03;;;;;;;14.02;8.82;;;;;;;8.49;100.00;101478.78;5041372;28;20068;-82
2022/12/29 11:41:31;;;;;;;17.00;9.57;;;;;;;8.41;100.00;101468.16;5033349;28;20794;-75
2022/12/29 11:44:00;;;;;;;19.98;9.32;;;;;;;8.61;100.00;101527.94;5030559;28;20365;-78
2022/12/29 11:46:36;;;;;;;19.65;10.52;;;;;;;8.89;100.00;101576.63;5028297;28;20033;-77
2022/12/29 11:49:04;;;;;;;27.20;9.65;;;;;;;8.47;100.00;101485.72;5053748;28;20169;-78
2022/12/29 11:51:42;;;;;;;12.48;8.98;;;;;;;8.86;100.00;101555.63;5058599;28;20383;-77
2022/12/29 11:54:21;;;;;;;14.35;9.30;;;;;;;8.84;100.00;101567.78;5047176;28;20052;-76
2022/12/29 11:56:48;;;;;;;25.00;10.95;;;;;;;8.50;100.00;101553.81;5040593;28;20072;-77
2022/12/29 11:59:38;;;;;;;13.45;8.30;;;;;;;8.84;100.00;101567.78;5032590;28;20567;-76